Cruz Bay, U.S. Virgin Islands

10:00 PM AST on August 28, 2014 (GMT -0400)
MARITIME | Change Station
CLOSE
Current Station
Personal Weather Station
Location: Cruz Bay, VI
Elevation: 0 ft
Nearby Weather Stations

Elev 0 ft 18.30 °N, 64.80 °W | Updated 4 days ago

Thunderstorm
Thunderstorm
81 °F
Feels Like 84 °F
N
16
Wind Variable Wind from ESE
Gusts mph

Today
High -- | Low -- °F
--% Chance of Precip.
Yesterday
High -- | Low -- °F
Precip. -- in
6:03 AM 6:36 PM
Waxing Crescent, 11% visible
Pressure 30.05 in
Visibility 10.0 miles
Clouds Few 1200 ft
Mostly Cloudy 2900 ft
Overcast 7000 ft
Heat Index 84 °F
Dew Point 73 °F
Humidity 79%
Rainfall -999.00 in
Snow Depth Not available.
UV 0 out of 12
Pollen Not available.
Ozone Good
PM2.5 Good
Flu Activity Not available.
METAR TISX 290153Z 33005KT 10SM FEW012 BKN029 OVC070 24/23 A3005 RMK AO2 RAB12E49 SLP174 P0031 T02440228

More Conditions Fewer Conditions

Pressure 30.05 in
Visibility 10.0 miles
Clouds Few 1200 ft
Mostly Cloudy 2900 ft
Overcast 7000 ft
Heat Index 84 °F
Dew Point 73 °F
Humidity 79%
Rainfall -999.00 in
Snow Depth Not available.
UV 0 out of 12
Pollen Not available.
Ozone Good
PM2.5 Good
Flu Activity Not available.
METAR TISX 290153Z 33005KT 10SM FEW012 BKN029 OVC070 24/23 A3005 RMK AO2 RAB12E49 SLP174 P0031 T02440228

More Conditions Fewer Conditions

10-Day Weather Forecast

Almanac

Astronomy

Aug. 28, 2014 Rise Set
Actual Time 6:03 AM AST 6:36 PM AST
Civil Twilight 5:41 AM AST 6:58 PM AST
Nautical Twilight 5:15 AM AST 7:24 PM AST
Astronomical Twilight 4:49 AM AST 7:50 PM AST
Moon 8:23 AM AST (8/28) 8:31 PM AST (8/28)
Length of Visible Light 13h 16m
Length of Day
12h 32m
Tomorrow will be 1m 0s shorter.
Waxing Crescent, 11% of the Moon is Illuminated
Today
Waxing Crescent
Sep 2
First Quarter
Sep 8
Full
Sep 15
Last Quarter
Sep 24
New

Community

WunderPhotos

Upload Photos

1,748,124 photos uploaded!

Nearby

Air Quality

  Air Quality AQ Index Pollutant
Yesterday Good
OZONE
Yesterday Good
PM2.5
Current Good
OZONE
Current Good
PM2.5
Thursday Moderate
OZONE
Friday Moderate
OZONE

Snow Depth

Not available.

Earthquake Activity

City Distance Mag. Time & Date
No recent earthquake activity has been reported nearby.
Minimum magnitude displayed is 2.5.

Coastal Water Temperatures

Place Temperature
Yabucoa Harbor, PR 84.0 °F
Esperanza, PR 84.0 °F
Charlotte Amalie, VI 84.9 °F

Nearby Weather Stations